Time;durP1;ratioP1;P1;durP2;ratioP2;P2;SDS_P1;SDS_P2;PMS_P1;PMS_P2;Temp;Humidity;BMP_temperature;BMP_pressure;BME280_temperature;BME280_humidity;BME280_pressure;Samples;Min_cycle;Max_cycle;Signal;HPM_P1;HPM_P2
2022/02/21 00:01:53;;;;;;;0.40;0.20;;;10.80;98.80;;;;;;4957045;28;20408;-69
2022/02/21 00:04:19;;;;;;;0.40;0.25;;;10.80;98.60;;;;;;4973523;28;20471;-68
2022/02/21 00:06:45;;;;;;;0.40;0.20;;;10.70;98.70;;;;;;4972536;28;21002;-68
2022/02/21 00:09:11;;;;;;;0.40;0.30;;;10.80;98.70;;;;;;4939988;28;20471;-68
2022/02/21 00:11:37;;;;;;;0.40;0.30;;;10.80;98.50;;;;;;4955023;28;20498;-69
2022/02/21 00:14:03;;;;;;;0.40;0.20;;;10.80;98.60;;;;;;4956171;28;20403;-68
2022/02/21 00:16:29;;;;;;;0.40;0.20;;;10.80;98.40;;;;;;4973435;28;20447;-70
2022/02/21 00:18:55;;;;;;;0.40;0.20;;;10.90;98.00;;;;;;4972302;28;20394;-69
2022/02/21 00:21:21;;;;;;;0.40;0.20;;;10.90;98.00;;;;;;4972955;28;20404;-68
2022/02/21 00:23:46;;;;;;;0.40;0.30;;;10.90;98.00;;;;;;4972520;28;20475;-69
2022/02/21 00:26:14;;;;;;;0.40;0.20;;;10.90;98.10;;;;;;4973213;28;20414;-68
2022/02/21 00:28:39;;;;;;;0.40;0.20;;;10.80;98.10;;;;;;4972728;28;20799;-69
2022/02/21 00:31:05;;;;;;;0.40;0.30;;;10.90;98.20;;;;;;4955495;28;20428;-69
2022/02/21 00:33:31;;;;;;;0.40;0.20;;;10.90;98.10;;;;;;4973423;28;20392;-69
2022/02/21 00:35:56;;;;;;;0.40;0.30;;;10.90;98.10;;;;;;4954863;28;20832;-69
2022/02/21 00:38:22;;;;;;;0.40;0.20;;;10.80;98.00;;;;;;4973057;28;20388;-70
2022/02/21 00:40:49;;;;;;;0.40;0.20;;;10.90;97.60;;;;;;4972382;28;20417;-68
2022/02/21 00:43:14;;;;;;;0.40;0.20;;;10.90;97.60;;;;;;4972843;28;20388;-69
2022/02/21 00:45:40;;;;;;;0.40;0.20;;;11.00;97.50;;;;;;4955159;28;20395;-69
2022/02/21 00:48:06;;;;;;;0.40;0.20;;;10.90;97.40;;;;;;4972235;28;20823;-68
2022/02/21 00:50:31;;;;;;;0.40;0.30;;;10.90;97.50;;;;;;4972427;28;20546;-70
2022/02/21 00:52:57;;;;;;;0.40;0.20;;;10.90;97.30;;;;;;4972019;28;20414;-69
2022/02/21 00:55:23;;;;;;;0.40;0.20;;;10.90;97.30;;;;;;4955249;28;20750;-70
2022/02/21 00:57:49;;;;;;;0.40;0.20;;;11.00;97.20;;;;;;4971738;28;20384;-71
2022/02/21 01:00:15;;;;;;;0.40;0.20;;;11.00;97.10;;;;;;4976850;28;20906;-68
2022/02/21 01:02:40;;;;;;;0.40;0.20;;;11.00;97.10;;;;;;4973316;28;20453;-69
2022/02/21 01:05:07;;;;;;;0.40;0.30;;;11.00;97.20;;;;;;4991140;28;20394;-68
2022/02/21 01:07:33;;;;;;;0.40;0.20;;;10.90;97.30;;;;;;4991850;28;20390;-69
2022/02/21 01:09:59;;;;;;;0.60;0.50;;;10.90;97.40;;;;;;4991303;28;20390;-68
2022/02/21 01:12:24;;;;;;;2.60;1.00;;;10.90;97.60;;;;;;4990829;28;20391;-69
2022/02/21 01:14:51;;;;;;;0.40;0.20;;;10.90;97.80;;;;;;4992017;28;20732;-69
2022/02/21 01:17:18;;;;;;;0.40;0.20;;;10.90;97.90;;;;;;4991124;28;20394;-68
2022/02/21 01:19:44;;;;;;;0.40;0.20;;;10.90;98.10;;;;;;4991802;28;20865;-68
2022/02/21 01:22:09;;;;;;;0.40;0.20;;;10.80;98.30;;;;;;4991182;28;20410;-68
2022/02/21 01:24:35;;;;;;;0.40;0.30;;;10.80;98.90;;;;;;4990713;28;20375;-68
2022/02/21 01:27:01;;;;;;;0.40;0.20;;;10.70;99.10;;;;;;4991050;28;20378;-70
2022/02/21 01:29:27;;;;;;;0.40;0.20;;;10.70;99.00;;;;;;4973005;28;20382;-69
2022/02/21 01:31:55;;;;;;;0.40;0.20;;;10.70;99.10;;;;;;4990963;28;20386;-69
2022/02/21 01:34:21;;;;;;;0.40;0.27;;;10.70;99.00;;;;;;4991505;28;20395;-69
2022/02/21 01:36:48;;;;;;;0.40;0.20;;;10.70;99.20;;;;;;4990136;28;20963;-68
2022/02/21 01:39:14;;;;;;;0.40;0.30;;;10.70;99.50;;;;;;4991423;28;20414;-70
2022/02/21 01:41:40;;;;;;;0.40;0.20;;;10.70;99.90;;;;;;4990324;28;20398;-69
2022/02/21 01:44:08;;;;;;;0.40;0.20;;;10.60;99.90;;;;;;4973908;28;20391;-69
2022/02/21 01:46:35;;;;;;;0.40;0.30;;;10.60;99.90;;;;;;4990937;28;20748;-69
2022/02/21 01:49:01;;;;;;;0.40;0.20;;;10.50;99.90;;;;;;4990843;28;20886;-68
2022/02/21 01:51:27;;;;;;;0.40;0.20;;;10.50;99.90;;;;;;4990820;28;20406;-69
2022/02/21 01:53:55;;;;;;;0.40;0.30;;;10.40;99.90;;;;;;4989989;28;20796;-69
2022/02/21 01:56:23;;;;;;;0.60;0.60;;;10.40;99.90;;;;;;4990884;28;20493;-70
2022/02/21 01:58:49;;;;;;;0.40;0.20;;;10.40;99.90;;;;;;4972925;28;20395;-69
2022/02/21 02:01:14;;;;;;;0.40;0.20;;;10.40;99.90;;;;;;4990708;28;20721;-68
2022/02/21 02:03:40;;;;;;;0.40;0.20;;;10.30;99.90;;;;;;4991008;28;20382;-69
2022/02/21 02:06:09;;;;;;;0.40;0.40;;;10.30;99.90;;;;;;4989933;28;20390;-69
2022/02/21 02:08:34;;;;;;;0.40;0.30;;;10.30;99.90;;;;;;4990849;28;20375;-70
2022/02/21 02:11:01;;;;;;;0.40;0.20;;;10.20;99.90;;;;;;4993399;28;20411;-69
2022/02/21 02:13:27;;;;;;;0.40;0.22;;;10.10;99.90;;;;;;4995324;28;20480;-68
2022/02/21 02:15:54;;;;;;;0.40;0.20;;;10.10;99.90;;;;;;4994915;28;20382;-70
2022/02/21 02:18:22;;;;;;;0.40;0.20;;;10.10;99.90;;;;;;4994157;28;20383;-69
2022/02/21 02:20:49;;;;;;;0.40;0.20;;;10.10;99.90;;;;;;4994767;28;20434;-69
2022/02/21 02:23:15;;;;;;;0.50;0.50;;;10.00;99.90;;;;;;4993784;28;20386;-69
2022/02/21 02:25:41;;;;;;;0.40;0.20;;;10.00;99.90;;;;;;4994791;28;20441;-68
2022/02/21 02:28:07;;;;;;;0.40;0.22;;;10.00;99.90;;;;;;4994161;28;20394;-69
2022/02/21 02:30:33;;;;;;;0.40;0.20;;;10.00;99.90;;;;;;4994265;28;20414;-68
2022/02/21 02:32:59;;;;;;;0.40;0.20;;;9.90;99.90;;;;;;4994257;28;20457;-69
2022/02/21 02:35:32;;;;;;;0.40;0.20;;;9.90;99.90;;;;;;4994124;28;20394;-69
2022/02/21 02:37:58;;;;;;;0.40;0.20;;;9.90;99.90;;;;;;4977005;28;20957;-68
2022/02/21 02:40:23;;;;;;;0.40;0.20;;;10.00;99.90;;;;;;4993455;28;20473;-69
2022/02/21 02:42:49;;;;;;;0.40;0.30;;;10.00;99.90;;;;;;4994521;28;20387;-69
2022/02/21 02:45:15;;;;;;;0.40;0.20;;;10.00;99.90;;;;;;4977056;28;20390;-68
2022/02/21 02:47:41;;;;;;;0.40;0.20;;;9.90;99.90;;;;;;4994086;28;20390;-69
2022/02/21 02:50:07;;;;;;;0.40;0.30;;;9.90;99.90;;;;;;4993953;28;20511;-68
2022/02/21 02:52:33;;;;;;;0.40;0.20;;;9.90;99.90;;;;;;4993499;28;20418;-68
2022/02/21 02:54:59;;;;;;;0.40;0.20;;;9.90;99.90;;;;;;4994230;28;20419;-68
2022/02/21 02:57:24;;;;;;;0.40;0.30;;;9.90;99.90;;;;;;4993961;28;20445;-69
2022/02/21 02:59:50;;;;;;;0.40;0.20;;;9.90;99.90;;;;;;4976089;28;20836;-69
2022/02/21 03:02:16;;;;;;;0.40;0.20;;;9.90;99.90;;;;;;4994053;28;20903;-68
2022/02/21 03:04:41;;;;;;;0.40;0.20;;;10.00;99.90;;;;;;4993409;28;20375;-69
2022/02/21 03:07:07;;;;;;;0.40;0.30;;;10.00;99.90;;;;;;4960631;28;20882;-69
2022/02/21 03:09:33;;;;;;;0.40;0.20;;;10.10;99.90;;;;;;4993817;28;20394;-69
2022/02/21 03:11:59;;;;;;;0.40;0.30;;;10.10;99.90;;;;;;4993021;28;20417;-68
2022/02/21 03:14:24;;;;;;;0.40;0.20;;;10.10;99.90;;;;;;4993493;28;20402;-69
2022/02/21 03:16:50;;;;;;;0.40;0.20;;;10.00;99.90;;;;;;4993122;28;20430;-69
2022/02/21 03:19:19;;;;;;;0.40;0.20;;;10.00;99.90;;;;;;4993658;28;20407;-69
2022/02/21 03:21:45;;;;;;;0.40;0.20;;;10.00;99.90;;;;;;4991565;28;20414;-69
2022/02/21 03:24:11;;;;;;;0.40;0.20;;;10.00;99.90;;;;;;4993765;28;20418;-68
2022/02/21 03:26:37;;;;;;;0.40;0.20;;;10.00;99.90;;;;;;4993832;28;20464;-68
2022/02/21 03:29:03;;;;;;;0.40;0.22;;;10.00;99.90;;;;;;4992898;28;20379;-68
2022/02/21 03:31:28;;;;;;;0.40;0.20;;;9.90;99.90;;;;;;4993546;28;20383;-69
2022/02/21 03:33:54;;;;;;;0.40;0.20;;;9.90;99.90;;;;;;4992848;28;20430;-71
2022/02/21 03:36:20;;;;;;;0.40;0.20;;;10.00;99.90;;;;;;4993308;28;20708;-69
2022/02/21 03:38:45;;;;;;;0.40;0.20;;;10.00;99.90;;;;;;4993623;28;20822;-69
2022/02/21 03:41:11;;;;;;;0.40;0.27;;;10.00;99.90;;;;;;4975436;28;20429;-68
2022/02/21 03:43:37;;;;;;;0.40;0.20;;;10.00;99.90;;;;;;4993452;28;20472;-69
2022/02/21 03:46:03;;;;;;;0.40;0.20;;;10.00;99.90;;;;;;4992482;28;20536;-68
2022/02/21 03:48:29;;;;;;;0.40;0.20;;;10.00;99.90;;;;;;4993044;28;20469;-70
2022/02/21 03:50:55;;;;;;;0.40;0.20;;;10.00;99.90;;;;;;4993209;28;20504;-69
2022/02/21 03:53:20;;;;;;;0.40;0.20;;;10.00;99.90;;;;;;4992404;28;20394;-70
2022/02/21 03:55:46;;;;;;;0.40;0.20;;;10.00;99.90;;;;;;4993251;28;20422;-68
2022/02/21 03:58:12;;;;;;;0.40;0.20;;;10.00;99.90;;;;;;4992055;28;20736;-69
2022/02/21 04:00:38;;;;;;;0.40;0.22;;;10.00;99.90;;;;;;4992317;28;20415;-69
2022/02/21 04:03:03;;;;;;;0.40;0.20;;;10.00;99.90;;;;;;4993047;28;20739;-69
2022/02/21 04:05:29;;;;;;;0.40;0.20;;;10.00;99.90;;;;;;4992314;28;20448;-69
2022/02/21 04:07:55;;;;;;;0.40;0.20;;;10.00;99.90;;;;;;4992913;28;20755;-68
2022/02/21 04:10:21;;;;;;;0.40;0.20;;;10.00;99.90;;;;;;4992236;28;20414;-69
2022/02/21 04:12:47;;;;;;;0.40;0.20;;;9.90;99.90;;;;;;4992618;28;20413;-70
2022/02/21 04:15:13;;;;;;;0.40;0.20;;;9.70;99.90;;;;;;4992867;28;20705;-73
2022/02/21 04:17:46;;;;;;;0.40;0.30;;;9.30;99.90;;;;;;4991667;28;20747;-74
2022/02/21 04:20:21;;;;;;;0.40;0.30;;;9.10;99.90;;;;;;4975014;28;20407;-69
2022/02/21 04:22:48;;;;;;;0.40;0.20;;;8.60;99.90;;;;;;4991753;28;20387;-75
2022/02/21 04:25:14;;;;;;;0.40;0.40;;;8.40;99.90;;;;;;4975183;28;20485;-74
2022/02/21 04:27:44;;;;;;;0.40;0.20;;;8.30;99.90;;;;;;4974197;28;20410;-72
2022/02/21 04:30:14;;;;;;;0.40;0.20;;;8.30;99.90;;;;;;4992270;28;20557;-71
2022/02/21 04:32:41;;;;;;;0.40;0.20;;;6.70;99.90;;;;;;4974102;28;20399;-72
2022/02/21 04:35:08;;;;;;;0.40;0.20;;;4.80;99.90;;;;;;4992793;28;20395;-72
2022/02/21 04:37:34;;;;;;;0.40;0.20;;;4.50;99.90;;;;;;4992647;28;20958;-73
2022/02/21 04:40:00;;;;;;;0.40;0.30;;;4.60;99.90;;;;;;4991773;28;20411;-73
2022/02/21 04:42:26;;;;;;;0.40;0.20;;;4.80;99.90;;;;;;4975064;28;20859;-73
2022/02/21 04:44:51;;;;;;;0.40;0.20;;;5.00;99.90;;;;;;4991865;28;20479;-71
2022/02/21 04:47:17;;;;;;;0.40;0.20;;;5.00;99.90;;;;;;4992490;28;20379;-72
2022/02/21 04:49:43;;;;;;;0.40;0.20;;;4.90;99.90;;;;;;4992385;28;20426;-71
2022/02/21 04:52:09;;;;;;;0.40;0.20;;;4.80;99.90;;;;;;4973770;28;20921;-72
2022/02/21 04:54:34;;;;;;;0.40;0.20;;;4.30;99.90;;;;;;4975039;28;20396;-73
2022/02/21 04:57:00;;;;;;;0.40;0.30;;;4.10;99.90;;;;;;4991560;28;20510;-73
2022/02/21 04:59:25;;;;;;;0.40;0.30;;;3.90;99.90;;;;;;4992506;28;20418;-74
2022/02/21 05:01:51;;;;;;;0.40;0.20;;;4.00;99.90;;;;;;4974664;28;20394;-72
2022/02/21 05:04:17;;;;;;;0.40;0.30;;;4.10;99.90;;;;;;4991426;28;20895;-73
2022/02/21 05:06:42;;;;;;;0.40;0.20;;;4.10;99.90;;;;;;4992214;28;20386;-72
2022/02/21 05:09:08;;;;;;;0.40;0.20;;;4.10;99.90;;;;;;4991588;28;20386;-72
2022/02/21 05:11:34;;;;;;;0.40;0.20;;;4.20;99.90;;;;;;4992167;28;20477;-72
2022/02/21 05:13:59;;;;;;;0.40;0.20;;;4.20;99.90;;;;;;4974239;28;20397;-71
2022/02/21 05:16:25;;;;;;;0.40;0.20;;;4.30;99.90;;;;;;4991170;28;20431;-72
2022/02/21 05:18:50;;;;;;;0.40;0.20;;;4.30;99.90;;;;;;4991852;28;20521;-71
2022/02/21 05:21:16;;;;;;;0.40;0.20;;;4.40;99.90;;;;;;4991521;28;20461;-73
2022/02/21 05:23:42;;;;;;;0.40;0.20;;;4.50;99.90;;;;;;4973713;28;20402;-72
2022/02/21 05:26:08;;;;;;;0.40;0.20;;;4.40;99.90;;;;;;4991608;28;20470;-72
2022/02/21 05:28:34;;;;;;;0.40;0.20;;;4.50;99.90;;;;;;4990904;28;20391;-72
2022/02/21 05:30:59;;;;;;;0.40;0.20;;;4.50;99.90;;;;;;4991786;28;20391;-72
2022/02/21 05:33:25;;;;;;;0.40;0.20;;;4.60;99.90;;;;;;4991609;28;20390;-72
2022/02/21 05:35:51;;;;;;;0.40;0.20;;;4.60;99.90;;;;;;4991266;28;20444;-72
2022/02/21 05:38:17;;;;;;;0.40;0.20;;;4.60;99.90;;;;;;4991975;28;20397;-72
2022/02/21 05:40:43;;;;;;;0.40;0.20;;;4.70;99.90;;;;;;4989684;28;20887;-72
2022/02/21 05:43:09;;;;;;;0.40;0.20;;;4.70;99.90;;;;;;4990807;28;20433;-72
2022/02/21 05:45:35;;;;;;;0.40;0.20;;;4.80;99.90;;;;;;4989845;28;20425;-72
2022/02/21 05:48:00;;;;;;;0.40;0.20;;;4.90;99.90;;;;;;4991410;28;20441;-71
2022/02/21 05:50:26;;;;;;;0.40;0.20;;;4.90;99.90;;;;;;4991306;28;20394;-71
2022/02/21 05:52:52;;;;;;;0.40;0.20;;;4.90;99.90;;;;;;4990582;28;20382;-71
2022/02/21 05:55:17;;;;;;;0.40;0.20;;;4.90;99.90;;;;;;4991491;28;20379;-71
2022/02/21 05:57:45;;;;;;;0.40;0.20;;;4.90;99.90;;;;;;4991235;28;20739;-73
2022/02/21 06:00:12;;;;;;;0.40;0.20;;;4.90;99.90;;;;;;4991607;28;20421;-71
2022/02/21 06:02:37;;;;;;;0.40;0.20;;;4.90;99.90;;;;;;4991167;28;20860;-71
2022/02/21 06:05:03;;;;;;;0.40;0.20;;;4.90;99.90;;;;;;4990258;28;20385;-70
2022/02/21 06:07:29;;;;;;;0.40;0.20;;;4.90;99.90;;;;;;4973930;28;20445;-70
2022/02/21 06:09:54;;;;;;;0.40;0.20;;;4.80;99.90;;;;;;4990434;28;20498;-72
2022/02/21 06:12:20;;;;;;;0.40;0.20;;;4.80;99.90;;;;;;4991369;28;20476;-71
2022/02/21 06:14:46;;;;;;;0.40;0.20;;;4.80;99.90;;;;;;4991176;28;20516;-71
2022/02/21 06:17:12;;;;;;;0.40;0.20;;;4.80;99.90;;;;;;4990521;28;20855;-72
2022/02/21 06:19:38;;;;;;;0.40;0.20;;;4.80;99.90;;;;;;4973601;28;20417;-71
2022/02/21 06:22:04;;;;;;;0.40;0.30;;;4.80;99.90;;;;;;4990040;28;20402;-71
2022/02/21 06:24:29;;;;;;;0.40;0.20;;;4.80;99.90;;;;;;4973756;28;20402;-70
2022/02/21 06:26:55;;;;;;;0.40;0.20;;;4.90;99.90;;;;;;4991189;28;20387;-70
2022/02/21 06:29:21;;;;;;;0.40;0.20;;;4.90;99.90;;;;;;4990269;28;20394;-70
2022/02/21 06:31:47;;;;;;;0.40;0.20;;;4.90;99.90;;;;;;4973728;28;20387;-70
2022/02/21 06:34:12;;;;;;;0.40;0.20;;;4.90;99.90;;;;;;4956764;28;20735;-71
2022/02/21 06:36:38;;;;;;;0.40;0.30;;;5.10;99.90;;;;;;4991041;28;20387;-70
2022/02/21 06:39:04;;;;;;;0.40;0.20;;;5.20;99.90;;;;;;4990924;28;20429;-70
2022/02/21 06:41:30;;;;;;;0.40;0.20;;;5.20;99.90;;;;;;4972845;28;21049;-71
2022/02/21 06:43:56;;;;;;;0.40;0.20;;;5.20;99.90;;;;;;4990802;28;20882;-70
2022/02/21 06:46:21;;;;;;;0.40;0.20;;;5.30;99.90;;;;;;4990101;28;20782;-70
2022/02/21 06:48:52;;;;;;;0.40;0.20;;;5.40;99.90;;;;;;4973819;28;20395;-70
2022/02/21 06:51:18;;;;;;;0.40;0.20;;;5.50;99.90;;;;;;4990407;28;20441;-70
2022/02/21 06:53:43;;;;;;;0.40;0.20;;;5.50;99.90;;;;;;4973668;28;20913;-70
2022/02/21 06:56:10;;;;;;;0.40;0.20;;;5.50;99.90;;;;;;4992716;28;20375;-70
2022/02/21 06:58:36;;;;;;;0.40;0.20;;;5.40;99.90;;;;;;4992287;28;20398;-70
2022/02/21 07:01:02;;;;;;;0.40;0.20;;;5.30;99.90;;;;;;4991648;28;20414;-69
2022/02/21 07:03:28;;;;;;;0.40;0.20;;;5.30;99.90;;;;;;4993821;28;20763;-70
2022/02/21 07:05:54;;;;;;;0.40;0.20;;;5.20;99.90;;;;;;4993717;28;20399;-68
2022/02/21 07:08:19;;;;;;;0.40;0.20;;;5.10;99.90;;;;;;4994000;28;20862;-71
2022/02/21 07:10:46;;;;;;;0.40;0.20;;;5.10;99.90;;;;;;4992540;28;21043;-68
2022/02/21 07:13:11;;;;;;;0.40;0.20;;;5.10;99.90;;;;;;4992605;28;20422;-69
2022/02/21 07:15:39;;;;;;;0.40;0.40;;;5.20;99.90;;;;;;4990425;28;20687;-69
2022/02/21 07:18:05;;;;;;;0.40;0.20;;;5.20;99.90;;;;;;4993022;28;20444;-68
2022/02/21 07:20:31;;;;;;;0.40;0.20;;;5.10;99.90;;;;;;4981183;28;20446;-68
2022/02/21 07:22:56;;;;;;;0.40;0.20;;;5.20;99.90;;;;;;4988342;28;20395;-68
2022/02/21 07:25:22;;;;;;;0.40;0.20;;;5.20;99.90;;;;;;4981780;28;20462;-68
2022/02/21 07:27:50;;;;;;;0.40;0.20;;;5.20;99.90;;;;;;4982596;28;20393;-68
2022/02/21 07:30:18;;;;;;;0.40;0.20;;;5.20;99.90;;;;;;4973455;28;20442;-68
2022/02/21 07:32:44;;;;;;;0.40;0.20;;;5.10;99.90;;;;;;4975073;28;20883;-68
2022/02/21 07:35:10;;;;;;;0.40;0.20;;;5.10;99.90;;;;;;4992789;28;20449;-69
2022/02/21 07:37:39;;;;;;;0.40;0.20;;;5.20;99.90;;;;;;4993296;28;20988;-69
2022/02/21 07:40:05;;;;;;;0.40;0.22;;;5.20;99.90;;;;;;4992609;28;20487;-69
2022/02/21 07:42:31;;;;;;;0.40;0.20;;;5.20;99.90;;;;;;4986672;28;20399;-69
2022/02/21 07:44:57;;;;;;;0.40;0.20;;;5.20;99.90;;;;;;4971732;28;20396;-69
2022/02/21 07:47:22;;;;;;;0.40;0.20;;;5.20;99.90;;;;;;4984311;28;20407;-69
2022/02/21 07:49:48;;;;;;;0.40;0.20;;;5.30;99.90;;;;;;4984782;28;20406;-70
2022/02/21 07:52:14;;;;;;;0.40;0.20;;;5.30;99.90;;;;;;4987547;28;20443;-69
2022/02/21 07:54:40;;;;;;;0.40;0.20;;;5.30;99.90;;;;;;4974084;28;20405;-69
2022/02/21 07:57:06;;;;;;;0.40;0.20;;;5.30;99.90;;;;;;4992088;28;20397;-69
2022/02/21 07:59:33;;;;;;;0.40;0.20;;;5.40;99.90;;;;;;4990123;28;20414;-68
2022/02/21 08:01:59;;;;;;;0.40;0.20;;;5.50;99.90;;;;;;4989004;28;20881;-68
2022/02/21 08:04:26;;;;;;;0.60;0.60;;;5.40;99.90;;;;;;4985115;28;20503;-68
2022/02/21 08:06:52;;;;;;;0.40;0.20;;;5.50;99.90;;;;;;4989728;28;20729;-68
2022/02/21 08:09:20;;;;;;;0.40;0.30;;;5.60;99.90;;;;;;4987248;28;20452;-68
2022/02/21 08:11:47;;;;;;;0.40;0.20;;;5.70;99.90;;;;;;4991076;28;20406;-68
2022/02/21 08:14:13;;;;;;;0.80;0.60;;;5.80;99.90;;;;;;4990484;28;20399;-69
2022/02/21 08:16:39;;;;;;;0.40;0.20;;;5.80;99.90;;;;;;4986876;28;20399;-68
2022/02/21 08:19:06;;;;;;;0.40;0.20;;;5.90;99.90;;;;;;4983780;28;20890;-68
2022/02/21 08:21:32;;;;;;;0.40;0.20;;;5.90;99.90;;;;;;4992395;28;20484;-69
2022/02/21 08:23:58;;;;;;;0.40;0.20;;;5.70;99.90;;;;;;4990523;28;20883;-69
2022/02/21 08:26:24;;;;;;;0.40;0.20;;;5.90;99.90;;;;;;4989526;28;20398;-69
2022/02/21 08:28:49;;;;;;;0.40;0.20;;;5.90;99.90;;;;;;4968936;28;20484;-68
2022/02/21 08:31:15;;;;;;;0.40;0.20;;;5.80;99.90;;;;;;4970949;28;20500;-69
2022/02/21 08:33:41;;;;;;;0.40;0.20;;;5.90;99.90;;;;;;4981995;28;20883;-69
2022/02/21 08:36:07;;;;;;;0.40;0.20;;;5.90;99.90;;;;;;4983127;28;20479;-68
2022/02/21 08:38:33;;;;;;;0.40;0.20;;;5.90;99.90;;;;;;4978882;28;20489;-68
2022/02/21 08:40:59;;;;;;;0.40;0.20;;;5.80;99.90;;;;;;4991008;28;20414;-69
2022/02/21 08:43:28;;;;;;;0.40;0.20;;;5.80;99.90;;;;;;4986450;28;20781;-70
2022/02/21 08:45:55;;;;;;;0.40;0.20;;;6.00;99.90;;;;;;4973104;28;20396;-69
2022/02/21 08:48:21;;;;;;;0.50;0.50;;;6.10;99.90;;;;;;4955199;28;20514;-69
2022/02/21 08:50:47;;;;;;;0.40;0.30;;;6.20;99.90;;;;;;4979989;28;20496;-69
2022/02/21 08:53:13;;;;;;;0.40;0.20;;;6.30;99.90;;;;;;4983109;28;20479;-69
2022/02/21 08:55:39;;;;;;;0.40;0.30;;;6.30;99.90;;;;;;4972083;28;20391;-70
2022/02/21 08:58:04;;;;;;;0.40;0.20;;;6.30;99.90;;;;;;4989099;28;20387;-70
2022/02/21 09:00:30;;;;;;;0.40;0.20;;;6.20;99.90;;;;;;4983865;28;20572;-70
2022/02/21 09:02:58;;;;;;;0.40;0.20;;;6.10;99.90;;;;;;4982188;28;20398;-69
2022/02/21 09:05:25;;;;;;;0.40;0.20;;;6.00;99.90;;;;;;4987471;28;20426;-70
2022/02/21 09:07:54;;;;;;;0.40;0.20;;;6.10;99.90;;;;;;4986006;28;20387;-70
2022/02/21 09:10:20;;;;;;;0.40;0.20;;;6.30;99.90;;;;;;4988403;28;21146;-69
2022/02/21 09:12:46;;;;;;;0.40;0.30;;;6.40;99.90;;;;;;4987487;28;20381;-69
2022/02/21 09:15:12;;;;;;;0.40;0.20;;;6.50;99.90;;;;;;4989219;28;20383;-68
2022/02/21 09:17:38;;;;;;;0.40;0.20;;;6.60;99.90;;;;;;4970762;28;20399;-69
2022/02/21 09:20:05;;;;;;;0.40;0.20;;;6.60;99.90;;;;;;4987303;28;20460;-68
2022/02/21 09:22:31;;;;;;;0.40;0.20;;;6.60;99.90;;;;;;4988809;28;20473;-68
2022/02/21 09:24:57;;;;;;;0.40;0.20;;;6.50;99.90;;;;;;4986871;28;20401;-69
2022/02/21 09:27:23;;;;;;;0.40;0.20;;;6.60;99.90;;;;;;4987816;28;21727;-68
2022/02/21 09:29:49;;;;;;;0.40;0.20;;;6.60;99.90;;;;;;4987923;28;20887;-70
2022/02/21 09:32:15;;;;;;;0.60;0.60;;;6.70;99.90;;;;;;4988403;28;20858;-69
2022/02/21 09:34:40;;;;;;;0.40;0.20;;;6.70;99.90;;;;;;4988940;28;20477;-73
2022/02/21 09:37:07;;;;;;;1.20;1.10;;;6.70;99.90;;;;;;4987301;28;20388;-70
2022/02/21 09:39:33;;;;;;;0.40;0.20;;;6.80;99.90;;;;;;4988832;28;20414;-70
2022/02/21 09:41:59;;;;;;;0.40;0.30;;;6.80;99.90;;;;;;4988159;28;20444;-70
2022/02/21 09:44:25;;;;;;;0.40;0.20;;;6.80;99.90;;;;;;4988790;28;20456;-69
2022/02/21 09:46:52;;;;;;;0.40;0.20;;;6.90;99.90;;;;;;4985082;28;20896;-69
2022/02/21 09:49:19;;;;;;;0.40;0.20;;;6.90;99.90;;;;;;4988679;28;20410;-69
2022/02/21 09:51:46;;;;;;;0.40;0.20;;;7.00;99.90;;;;;;4987138;28;21110;-69
2022/02/21 09:54:13;;;;;;;0.40;0.20;;;7.00;99.90;;;;;;4984075;28;20402;-69
2022/02/21 09:56:42;;;;;;;0.40;0.27;;;7.00;99.90;;;;;;4988693;28;20945;-69
2022/02/21 09:59:08;;;;;;;0.40;0.20;;;6.90;99.90;;;;;;4987174;28;20757;-70
2022/02/21 10:01:39;;;;;;;0.40;0.20;;;6.90;99.90;;;;;;4988292;28;20401;-70
2022/02/21 10:04:09;;;;;;;0.40;0.20;;;6.90;99.90;;;;;;4987912;28;20394;-71
2022/02/21 10:06:35;;;;;;;0.40;0.20;;;7.00;99.90;;;;;;4986960;28;20386;-71
2022/02/21 10:09:10;;;;;;;1.00;1.00;;;7.00;99.90;;;;;;4989414;28;20386;-71
2022/02/21 10:11:41;;;;;;;0.40;0.40;;;7.10;99.90;;;;;;4987482;28;20446;-71
2022/02/21 10:14:17;;;;;;;0.40;0.20;;;7.20;99.90;;;;;;4988565;28;20481;-71
2022/02/21 10:16:46;;;;;;;0.40;0.20;;;7.20;99.90;;;;;;4988504;28;20418;-71
2022/02/21 10:19:11;;;;;;;0.40;0.20;;;7.30;99.90;;;;;;4986066;28;20413;-72
2022/02/21 10:21:59;;;;;;;0.50;0.50;;;7.30;99.90;;;;;;4989127;28;20501;-71
2022/02/21 10:24:37;;;;;;;0.40;0.20;;;7.10;99.90;;;;;;4988101;28;20386;-71
2022/02/21 10:27:15;;;;;;;0.40;0.30;;;7.20;99.90;;;;;;4989123;28;20562;-71
2022/02/21 10:29:52;;;;;;;0.40;0.20;;;7.30;99.90;;;;;;4987770;28;20874;-71
2022/02/21 10:32:28;;;;;;;0.40;0.20;;;7.40;99.90;;;;;;4989549;28;20481;-71
2022/02/21 10:34:56;;;;;;;0.40;0.20;;;7.60;99.20;;;;;;4992849;28;20798;-71
2022/02/21 10:37:24;;;;;;;0.40;0.20;;;7.60;98.40;;;;;;4992055;28;20386;-71
2022/02/21 10:40:05;;;;;;;0.40;0.20;;;7.70;96.80;;;;;;4993091;28;20472;-71
2022/02/21 10:42:32;;;;;;;2.20;0.90;;;7.70;97.50;;;;;;4973933;28;20791;-71
2022/02/21 10:45:18;;;;;;;0.40;0.20;;;7.80;98.00;;;;;;4993178;28;20386;-71
2022/02/21 10:48:05;;;;;;;0.40;0.30;;;7.90;97.80;;;;;;4991091;28;20898;-71
2022/02/21 10:50:34;;;;;;;0.40;0.20;;;7.80;97.80;;;;;;4991763;28;20410;-71
2022/02/21 10:53:11;;;;;;;0.40;0.30;;;7.90;97.90;;;;;;4991992;28;20405;-70
2022/02/21 10:55:38;;;;;;;0.40;0.20;;;8.10;97.30;;;;;;4989687;28;20410;-71
2022/02/21 10:58:23;;;;;;;0.40;0.20;;;8.00;96.90;;;;;;4992244;28;20386;-70
2022/02/21 11:00:49;;;;;;;0.40;0.20;;;8.00;96.70;;;;;;4990144;28;20421;-69
2022/02/21 11:03:24;;;;;;;0.40;0.20;;;8.20;97.00;;;;;;4991690;28;20402;-69
2022/02/21 11:05:51;;;;;;;0.40;0.20;;;8.10;96.70;;;;;;4992095;28;20386;-69
2022/02/21 11:08:19;;;;;;;0.40;0.20;;;8.10;95.80;;;;;;4987152;28;20505;-69
2022/02/21 11:11:06;;;;;;;0.40;0.20;;;8.10;95.80;;;;;;4988483;28;20499;-70
2022/02/21 11:13:34;;;;;;;0.40;0.20;;;8.10;95.30;;;;;;4986781;28;20863;-70
2022/02/21 11:16:01;;;;;;;0.40;0.20;;;7.80;95.00;;;;;;4991598;28;20477;-70
2022/02/21 11:18:28;;;;;;;0.40;0.20;;;7.70;95.60;;;;;;4990939;28;20387;-69
2022/02/21 11:20:54;;;;;;;0.40;0.20;;;7.70;95.60;;;;;;4989998;28;20517;-70
2022/02/21 11:23:20;;;;;;;0.80;0.80;;;7.60;95.60;;;;;;4991063;28;20935;-70
2022/02/21 11:25:50;;;;;;;0.40;0.20;;;7.80;96.30;;;;;;4991472;28;20433;-71
2022/02/21 11:28:30;;;;;;;0.40;0.20;;;7.90;95.70;;;;;;4989852;28;20461;-71
2022/02/21 11:31:03;;;;;;;0.40;0.20;;;7.80;95.90;;;;;;4990256;28;20402;-71
2022/02/21 11:33:28;;;;;;;0.40;0.20;;;7.90;96.20;;;;;;4991106;28;20402;-72
2022/02/21 11:36:00;;;;;;;0.40;0.20;;;8.80;95.10;;;;;;4991225;28;20383;-70
2022/02/21 11:38:29;;;;;;;0.40;0.20;;;8.40;95.90;;;;;;4991776;28;20394;-71
2022/02/21 11:41:13;;;;;;;0.40;0.20;;;7.90;97.20;;;;;;4989483;28;20426;-71
2022/02/21 11:43:47;;;;;;;0.40;0.20;;;8.10;98.80;;;;;;4989472;28;20466;-71
2022/02/21 11:46:25;;;;;;;0.40;0.20;;;8.50;97.30;;;;;;4988565;28;20390;-69
2022/02/21 11:48:57;;;;;;;0.40;0.30;;;8.20;98.10;;;;;;4991253;28;20395;-69
2022/02/21 11:51:28;;;;;;;0.40;0.20;;;8.70;98.00;;;;;;4991069;28;20724;-69
2022/02/21 11:53:54;;;;;;;0.40;0.20;;;10.10;95.00;;;;;;4989987;28;20402;-69
2022/02/21 11:56:52;;;;;;;0.40;0.20;;;10.40;91.70;;;;;;4990709;28;20398;-69
2022/02/21 11:59:24;;;;;;;0.40;0.20;;;10.10;90.80;;;;;;4988411;28;20590;-69
2022/02/21 12:02:00;;;;;;;0.40;0.40;;;9.10;93.40;;;;;;4990105;28;20421;-69
2022/02/21 12:04:27;;;;;;;0.50;0.50;;;8.80;93.90;;;;;;4990869;28;20378;-69
2022/02/21 12:06:59;;;;;;;0.50;0.50;;;8.50;93.40;;;;;;4990144;28;20387;-69
2022/02/21 12:09:26;;;;;;;0.40;0.20;;;8.50;93.80;;;;;;4989720;28;20391;-69
2022/02/21 12:12:13;;;;;;;0.40;0.30;;;8.30;94.80;;;;;;4989608;28;20438;-69
2022/02/21 12:15:12;;;;;;;0.40;0.30;;;8.40;95.50;;;;;;4973107;28;20394;-69
2022/02/21 12:17:39;;;;;;;1.90;0.90;;;8.40;96.40;;;;;;4989412;28;20399;-71
2022/02/21 12:20:32;;;;;;;0.40;0.30;;;8.30;96.40;;;;;;4991088;28;20422;-70
2022/02/21 12:23:19;;;;;;;0.40;0.30;;;8.40;94.80;;;;;;4970137;28;20760;-68
2022/02/21 12:25:57;;;;;;;0.40;0.20;;;8.30;95.20;;;;;;4986725;28;20391;-68
2022/02/21 12:28:26;;;;;;;0.40;0.20;;;8.30;95.80;;;;;;4989078;28;21018;-68
2022/02/21 12:30:59;;;;;;;0.40;0.20;;;8.20;95.70;;;;;;4990703;28;20394;-70
2022/02/21 12:33:38;;;;;;;0.40;0.30;;;8.20;95.90;;;;;;4967420;28;20417;-69
2022/02/21 12:36:07;;;;;;;0.40;0.20;;;8.00;95.60;;;;;;4989452;28;20765;-71
2022/02/21 12:38:35;;;;;;;0.40;0.20;;;8.20;95.60;;;;;;4990210;28;20941;-69
2022/02/21 12:41:11;;;;;;;0.40;0.20;;;8.30;94.20;;;;;;4989907;28;20418;-68
2022/02/21 12:43:50;;;;;;;0.40;0.20;;;8.50;93.60;;;;;;4971630;28;20437;-69
2022/02/21 12:46:19;;;;;;;0.40;0.30;;;8.70;93.30;;;;;;4989521;28;20433;-69
2022/02/21 12:48:46;;;;;;;0.40;0.30;;;8.30;93.10;;;;;;4989874;28;20387;-69
2022/02/21 12:51:23;;;;;;;0.40;0.20;;;8.30;93.70;;;;;;4989588;28;20449;-70
2022/02/21 12:53:59;;;;;;;0.50;0.40;;;8.10;93.60;;;;;;4989489;28;20399;-70
2022/02/21 12:56:27;;;;;;;0.40;0.20;;;8.00;94.30;;;;;;4988361;28;20410;-70